Last 365 Observations

SDSF Weather Stn (Cal Fire)

Daily Data | America/Los_Angeles
as of 2/7/23 9:20 AM PST
Date Daily Max Temp (°F) Daily Min Temp (°F) Daily Rain (In) Month Precip (In) Season Precip (In) Daily ETo (in) Daily Solar Rad (Cal/cm2) Daily Max Wind (mph) Dew Pt (°F) Max RH (%) Min RH (%) Daily Leaf Wet Hrs (hrs) Fuel Moisture (%) Max Fuel Temp (°F) Min Fuel Temp (°F) Soil Moist (%) Soil Temp (°F) Storm Total (In) Max 1 Min Rain (In) Max 1 Min Rain Time Max 5 Min Rain (In) Max 5 Min Precip Time Max 15 Min Rain (In) Max 15 Min Precip Time Max 60 Min Rain (In) Max 60 Min Rain Time MinBV Day (V)
2/6/23 55.5 40.0 0.00 2.38 55.85 0.074 325 14.1 34.8 89 37 2.3 27 73.0 35.8 33.0 48.6 - - - - - - - - - 12.4
2/5/23 51.4 39.6 0.23 2.38 55.85 0.047 247 15.3 42.4 98 71 22.6 44 60.9 36.6 34.3 48.5 2.38 0.02 1201 0.05 1204 0.05 1204 0.05 1036 12.3
2/4/23 53.1 43.5 1.61 2.15 55.62 0.019 82 25.2 48.3 98 92 24.0 48 56.8 41.3 34.4 48.5 2.15 0.03 2113 0.09 2111 0.23 2114 0.51 2120 12.3
2/3/23 51.7 41.8 0.54 0.54 54.01 0.022 88 11.9 40.5 98 30 18.8 34 53.1 41.1 32.4 48.6 0.54 0.01 0525 0.03 0748 0.06 0753 0.12 0807 12.4
2/2/23 62.3 40.4 0.00 0.00 53.47 0.060 238 12.7 27.4 69 22 0.0 10 76.1 35.0 29.4 48.7 - - - - - - - - - 12.4
2/1/23 59.6 39.1 0.00 0.00 53.47 0.068 289 7.5 26.6 65 23 0.0 9 72.1 34.2 29.5 48.9 - - - - - - - - - 12.4
1/31/23 58.9 36.0 0.00 19.92 53.47 0.072 311 7.3 18.7 62 15 0.0 10 72.9 30.4 29.7 49.0 - - - - - - - - - 12.4
1/30/23 55.0 34.0 0.00 19.92 53.47 0.073 305 14.1 20.6 81 16 0.0 17 70.6 28.4 30.0 49.0 - - - - - - - - - 12.3
1/29/23 48.6 38.5 0.10 19.92 53.47 0.034 174 9.8 37.7 96 60 13.2 28 60.1 34.5 30.1 49.0 0.10 0.01 0500 0.01 0500 0.01 0500 0.03 0644 12.4
1/28/23 57.1 41.6 0.00 19.82 53.37 0.066 298 9.4 38.4 90 48 4.5 12 70.4 36.6 29.9 49.0 - - - - - - - - - 12.4
1/27/23 64.9 42.4 0.00 19.82 53.37 0.072 296 6.1 35.7 82 33 0.0 9 77.5 37.3 30.1 49.0 - - - - - - - - - 12.4
1/26/23 67.4 45.8 0.00 19.82 53.37 0.074 292 8.9 32.7 69 28 0.0 8 81.8 39.6 30.3 49.2 - - - - - - - - - 12.4
1/25/23 64.3 44.4 0.00 19.82 53.37 0.076 291 13.9 30.8 65 23 0.0 8 80.2 38.7 30.4 49.4 - - - - - - - - - 12.4
1/24/23 64.3 39.2 0.00 19.82 53.37 0.071 290 7.5 29.8 69 24 0.0 9 78.6 33.9 30.6 49.6 - - - - - - - - - 12.4
1/23/23 55.9 39.7 0.00 19.82 53.37 0.085 291 29.6 22.3 70 20 0.0 10 72.7 35.2 31.0 49.8 - - - - - - - - - 12.4
1/22/23 53.3 40.8 0.00 19.82 53.37 0.070 278 21.7 28.3 86 24 0.0 13 67.4 36.1 31.4 50.1 - - - - - - - - - 12.4
1/21/23 59.2 36.8 0.00 19.82 53.37 0.063 281 6.7 29.7 83 22 0.0 14 73.6 31.5 31.8 50.4 - - - - - - - - - 12.4
1/20/23 53.7 37.5 0.00 19.82 53.37 0.067 282 22.3 26.2 80 28 0.0 15 69.2 33.1 32.5 50.6 - - - - - - - - - 12.3
1/19/23 50.8 37.6 0.16 19.82 53.37 0.054 255 17.0 35.4 97 44 9.9 31 60.6 35.1 33.6 50.8 0.22 0.01 0003 0.04 0016 0.09 0017 0.20 0040 12.3
1/18/23 53.6 35.6 0.06 19.66 53.21 0.047 230 10.1 38.8 97 51 11.8 29 64.0 32.6 31.7 51.1 - 0.01 1255 0.03 2358 0.05 0001 0.05 0001 12.2
1/17/23 52.6 37.0 0.01 19.60 53.15 0.051 267 6.1 37.7 98 44 18.0 42 61.7 33.4 34.5 51.3 7.99 0.01 0508 0.01 0508 0.01 0508 0.01 0508 12.0
1/16/23 46.6 38.7 1.22 19.59 53.14 0.020 99 15.7 40.0 97 83 24.0 52 54.7 36.3 36.4 51.5 7.98 0.03 0224 0.13 0227 0.26 0229 0.48 0300 12.0
1/15/23 47.4 41.6 1.81 18.37 51.92 0.010 38 12.7 42.9 98 90 24.0 52 49.5 41.3 36.7 51.6 6.76 0.04 1420 0.12 1422 0.18 1425 0.52 1446 12.0
1/14/23 52.1 44.1 3.50 16.56 50.11 0.016 58 18.3 48.1 98 91 24.0 49 54.3 42.9 37.4 51.6 4.95 0.04 0855 0.15 0857 0.33 0903 0.85 0921 12.0
1/13/23 53.6 46.0 1.45 13.06 46.61 0.008 25 17.2 46.5 98 53 16.8 39 52.9 45.6 35.7 51.6 1.45 0.03 1017 0.11 1020 0.20 1028 0.57 1113 12.1
1/12/23 59.1 47.1 0.00 11.61 45.16 0.043 190 9.9 47.0 97 60 13.8 39 62.8 44.9 34.8 51.5 - - - - - - - - - 12.1
1/11/23 52.3 44.0 0.91 11.61 45.16 0.019 73 11.1 46.4 96 87 24.0 49 52.0 43.2 36.2 51.4 7.87 0.01 0005 0.03 0057 0.05 1224 0.14 1307 12.1
1/10/23 52.7 44.3 0.60 10.70 44.25 0.022 92 29.3 45.4 97 82 20.6 44 51.7 44.9 35.9 51.2 6.96 0.04 0218 0.13 0221 0.26 0225 0.45 0248 12.1
1/9/23 55.3 43.2 3.97 10.10 43.65 0.018 79 18.2 50.0 98 86 21.8 44 59.2 40.9 37.0 51.1 6.36 0.03 0348 0.13 0407 0.38 0417 1.14 0446 12.1
1/8/23 56.6 47.2 1.30 6.13 39.68 0.030 125 19.2 48.9 97 70 17.8 40 63.0 47.0 35.8 51.5 2.39 0.04 0128 0.11 0129 0.24 0136 0.57 0136 12.1
1/7/23 54.9 44.5 1.09 4.83 38.38 0.028 90 15.3 41.0 96 46 8.6 32 57.9 43.8 34.5 51.6 1.09 0.02 1957 0.05 1959 0.12 2009 0.25 2046 12.2
1/6/23 55.7 41.9 0.00 3.74 37.29 0.033 158 6.0 44.2 98 63 17.8 43 61.8 39.7 34.0 51.6 - - - - - - - - - 12.1
1/5/23 51.6 43.9 0.55 3.74 37.29 0.012 46 25.2 47.1 98 90 24.0 49 52.2 41.1 35.7 51.7 3.72 0.02 0937 0.05 1112 0.18 0001 0.37 0015 12.2
1/4/23 54.0 42.8 2.73 3.19 36.74 0.016 46 17.8 47.0 96 80 24.0 45 53.8 41.1 36.0 52.0 3.17 0.03 2350 0.11 2354 0.23 1804 0.64 1832 12.2
1/3/23 49.7 42.6 0.06 0.46 34.01 0.021 89 8.5 44.4 97 86 18.5 41 54.5 40.0 34.6 52.1 0.44 0.01 0007 0.01 0001 0.02 0001 0.05 0025 12.2
1/2/23 46.9 40.6 0.38 0.40 33.95 0.014 48 10.0 37.4 97 39 13.4 31 48.2 37.4 33.9 52.1 0.38 0.01 1304 0.02 1654 0.03 1658 0.08 1721 12.3
1/1/23 55.1 41.5 0.02 0.02 33.57 0.060 252 19.4 35.8 97 36 6.3 37 65.1 37.6 34.5 51.8 13.53 0.01 0025 0.02 0028 0.02 0028 0.02 0028 12.2
12/31/22 54.4 45.4 7.16 26.66 33.55 0.007 13 22.4 49.9 98 82 23.9 52 54.2 44.2 37.9 51.7 13.51 0.02 0423 0.09 1241 0.25 1251 0.88 1312 12.2
12/30/22 54.8 49.4 2.39 19.50 26.39 0.009 30 13.1 52.2 98 97 24.0 49 55.6 49.6 36.5 52.0 6.35 0.01 0001 0.03 1559 0.07 1732 0.21 2356 12.3
12/29/22 50.7 42.9 0.56 17.11 24.00 0.015 60 6.1 45.8 97 89 24.0 46 53.0 42.8 34.6 51.9 3.96 0.01 0119 0.02 2019 0.04 2030 0.08 0402 12.3
12/28/22 53.4 40.0 0.03 16.55 23.44 0.042 215 6.7 41.8 97 69 14.6 40 57.6 36.4 33.5 51.7 3.40 0.01 0034 0.01 0034 0.01 0034 0.01 0034 12.3
12/27/22 53.3 42.7 3.28 16.52 23.41 0.006 20 13.2 49.2 97 88 24.0 46 54.2 39.2 35.8 51.6 3.37 0.02 0454 0.06 0455 0.13 0402 0.45 0357 12.3
12/26/22 62.5 48.9 0.09 13.24 20.13 0.028 97 9.5 47.4 96 59 6.5 18 68.2 48.5 30.3 51.5 - 0.01 1820 0.02 1843 0.04 1847 0.08 1934 12.4
12/25/22 73.0 52.1 0.00 13.15 20.04 0.057 225 5.7 47.8 82 43 0.0 12 85.8 47.2 30.2 51.3 - - - - - - - - - 12.4
12/24/22 68.4 48.2 0.00 13.15 20.04 0.054 226 7.1 47.5 91 43 10.0 18 79.5 44.7 30.3 51.2 - - - - - - - - - 12.4
12/23/22 64.5 46.8 0.00 13.15 20.04 0.052 230 6.1 47.9 95 59 17.5 18 76.2 43.0 30.4 51.2 - - - - - - - - - 12.4
12/22/22 64.2 48.0 0.00 13.15 20.04 0.039 166 5.8 47.2 93 57 17.1 17 73.6 44.7 30.4 51.2 - - - - - - - - - 12.4
12/21/22 64.8 45.0 0.00 13.15 20.04 0.051 222 6.1 42.5 88 43 0.2 14 77.7 39.4 30.4 51.3 - - - - - - - - - 12.4
12/20/22 58.1 42.1 0.00 13.15 20.04 0.049 232 6.1 39.1 84 40 0.0 14 73.2 38.1 30.6 51.4 - - - - - - - - - 12.4
12/19/22 56.2 39.6 0.00 13.15 20.04 0.039 181 7.1 35.3 82 37 0.0 16 64.7 35.0 30.6 51.6 - - - - - - - - - 12.4
12/18/22 59.4 40.0 0.00 13.15 20.04 0.052 242 5.8 35.5 86 40 0.0 15 70.0 35.1 30.8 51.8 - - - - - - - - - 12.4
12/17/22 60.7 40.6 0.00 13.15 20.04 0.054 242 5.6 35.3 84 36 0.0 15 70.6 35.7 31.0 52.0 - - - - - - - - - 12.4
12/16/22 60.7 39.4 0.00 13.15 20.04 0.053 243 5.7 35.3 87 40 2.5 19 72.7 34.0 31.2 52.2 - - - - - - - - - 12.4
12/15/22 57.0 38.6 0.00 13.15 20.04 0.041 202 4.5 37.3 90 47 9.1 22 64.5 34.7 31.5 52.4 - - - - - - - - - 12.4
12/14/22 54.6 35.3 0.00 13.15 20.04 0.045 228 6.4 36.0 93 45 16.5 26 65.0 31.9 31.9 52.6 - - - - - - - - - 12.4
12/13/22 52.3 34.3 0.05 13.15 20.04 0.045 246 7.4 35.0 97 42 15.5 33 65.0 31.2 32.5 52.8 - 0.01 0529 0.01 0529 0.01 0529 0.01 0529 12.4
12/12/22 49.0 35.0 0.05 13.10 19.99 0.037 204 11.4 37.7 97 64 18.4 43 60.7 32.2 34.1 52.8 - - - - - - - - - 12.2
12/11/22 45.7 38.3 1.50 13.05 19.94 0.020 99 14.8 39.8 97 84 24.0 50 54.1 36.6 36.0 53.0 3.72 0.01 1933 0.01 1933 0.01 1933 0.01 0001 12.2
12/10/22 52.7 43.7 4.10 11.55 18.44 0.005 13 26.6 47.8 97 90 24.0 45 53.0 43.7 36.1 53.6 3.71 0.01 0742 0.01 0742 0.01 0742 0.01 0742 12.2
12/9/22 50.0 43.2 0.10 7.45 14.34 0.022 103 7.1 44.5 97 82 18.4 40 53.8 43.4 33.3 54.1 3.69 0.01 1235 0.01 1235 0.01 1235 0.01 1235 12.3
12/8/22 50.7 37.8 0.10 7.35 14.24 0.028 135 11.4 40.4 97 67 14.7 35 56.2 35.0 32.1 54.2 3.68 0.01 0747 0.01 0747 0.01 0747 0.01 0747 12.4
12/7/22 55.1 38.1 0.00 7.25 14.14 0.042 215 6.6 40.2 97 58 17.5 41 62.3 35.7 32.8 54.2 3.66 0.01 0043 0.01 0043 0.01 0043 0.01 0043 12.3
12/6/22 50.7 38.9 0.70 7.25 14.14 0.027 139 7.4 41.9 97 73 20.0 46 57.3 36.3 34.2 54.2 3.62 0.01 0029 0.01 0029 0.01 0029 0.01 0029 12.2
12/5/22 53.5 42.7 0.30 6.55 13.44 0.027 133 11.5 45.4 98 74 21.6 46 61.1 40.6 34.0 54.2 3.53 0.01 0404 0.01 0404 0.01 0404 0.02 0636 12.2
12/4/22 51.3 44.1 0.95 6.25 13.14 0.021 98 8.3 45.8 97 91 24.0 48 55.6 42.3 34.5 54.4 3.34 0.01 0430 0.01 0430 0.02 0444 0.05 0527 12.3
12/3/22 52.2 45.1 2.94 5.30 12.19 0.010 39 9.8 47.7 97 81 22.7 42 53.3 43.9 34.5 55.1 2.94 0.01 0223 0.03 0804 0.09 1528 0.33 1601 12.3
12/2/22 52.4 32.7 0.01 2.36 9.25 0.048 242 8.9 34.3 97 29 9.4 34 57.6 29.0 32.0 55.6 2.36 0.01 0058 0.01 0058 0.01 0058 0.01 0058 12.2
12/1/22 48.2 35.3 2.35 2.35 9.24 0.006 21 14.2 40.2 97 75 24.0 39 48.6 31.5 30.8 56.0 2.35 0.02 1220 0.08 1224 0.20 1231 0.58 1244 12.2
11/30/22 56.1 38.3 0.00 5.02 6.89 0.053 248 10.1 33.4 86 27 16.2 13 69.5 33.4 24.7 56.2 - - - - - - - - - 12.3
11/29/22 57.9 36.9 0.00 5.02 6.89 0.055 255 6.8 35.1 83 44 16.9 12 70.7 32.4 24.8 56.4 - - - - - - - - - 12.4
11/28/22 58.4 40.3 0.00 5.02 6.89 0.057 237 13.5 35.3 78 39 2.4 8 73.2 34.8 25.1 56.5 - - - - - - - - - 12.4
11/27/22 67.3 47.2 0.00 5.02 6.89 0.059 242 5.9 30.8 58 26 0.0 6 78.7 41.7 25.2 56.6 - - - - - - - - - 12.4
11/26/22 68.1 48.6 0.00 5.02 6.89 0.064 263 6.7 25.7 53 19 0.0 5 81.3 43.0 25.3 56.7 - - - - - - - - - 12.4
11/25/22 71.9 49.8 0.00 5.02 6.89 0.074 271 8.1 22.0 41 10 0.0 5 85.8 44.3 25.5 56.8 - - - - - - - - - 12.4
11/24/22 71.3 48.8 0.00 5.02 6.89 0.071 271 8.3 29.2 49 19 0.0 6 84.9 43.3 25.6 57.0 - - - - - - - - - 12.4
11/23/22 66.9 48.9 0.00 5.02 6.89 0.068 266 9.8 33.3 65 19 0.0 6 83.1 42.8 25.9 57.3 - - - - - - - - - 12.4
11/22/22 70.1 46.9 0.00 5.02 6.89 0.065 251 10.0 26.8 57 12 0.0 6 85.2 40.6 26.0 57.5 - - - - - - - - - 12.4
11/21/22 67.9 47.7 0.00 5.02 6.89 0.065 252 7.4 26.4 60 18 0.0 6 80.0 40.9 26.3 57.8 - - - - - - - - - 12.4
11/20/22 70.2 47.8 0.00 5.02 6.89 0.067 272 4.7 27.3 53 14 0.0 6 86.3 41.6 26.5 58.0 - - - - - - - - - 12.4
11/19/22 67.6 45.2 0.00 5.02 6.89 0.074 282 9.8 26.5 55 16 0.0 6 84.0 38.5 26.8 58.3 - - - - - - - - - 12.4
11/18/22 64.6 46.0 0.00 5.02 6.89 0.075 283 13.6 26.7 58 20 0.0 6 81.6 40.2 27.1 58.6 - - - - - - - - - 12.4
11/17/22 70.1 46.2 0.00 5.02 6.89 0.074 284 7.0 26.8 54 15 0.0 7 84.3 40.5 27.5 58.9 - - - - - - - - - 12.4
11/16/22 68.6 47.6 0.00 5.02 6.89 0.078 290 10.7 24.6 55 15 0.0 7 82.8 40.3 27.8 59.3 - - - - - - - - - 12.4
11/15/22 65.5 41.7 0.00 5.02 6.89 0.076 290 11.7 32.6 80 18 9.1 11 82.4 36.9 28.2 59.7 - - - - - - - - - 12.4
11/14/22 59.5 39.2 0.00 5.02 6.89 0.067 288 6.4 35.7 82 39 17.6 13 73.8 34.5 28.6 60.1 - - - - - - - - - 12.3
11/13/22 59.7 40.8 0.00 5.02 6.89 0.069 299 9.9 34.9 90 22 11.4 14 78.0 34.8 29.1 60.5 - - - - - - - - - 12.4
11/12/22 57.9 41.9 0.00 5.02 6.89 0.070 307 11.7 37.2 88 36 5.1 16 74.0 37.9 29.7 60.9 - - - - - - - - - 12.4
11/11/22 59.6 38.3 0.00 5.02 6.89 0.056 242 5.5 37.6 88 44 0.6 19 71.7 34.0 30.3 61.4 - - - - - - - - - 12.4
11/10/22 59.0 39.8 0.00 5.02 6.89 0.066 300 8.1 38.0 96 38 10.0 27 73.8 35.0 31.3 61.9 - - - - - - - - - 12.4
11/9/22 55.6 38.2 0.07 5.02 6.89 0.048 226 7.5 41.3 97 64 18.2 38 65.8 34.9 33.0 62.5 4.37 0.01 0214 0.02 0228 0.03 0228 0.06 0247 12.2
11/8/22 48.2 40.7 3.20 4.95 6.82 0.023 116 12.4 42.2 97 82 24.0 45 56.9 37.2 35.6 62.8 4.30 0.01 0001 0.05 0526 0.13 0536 0.48 0602 12.3
11/7/22 55.6 43.0 0.65 1.75 3.62 0.055 251 17.0 43.2 97 48 19.2 37 66.8 40.4 31.5 63.0 1.10 0.02 0203 0.05 0203 0.09 0205 0.26 2356 12.4
11/6/22 58.7 45.6 0.35 1.10 2.97 0.053 221 14.8 45.8 97 44 13.7 33 69.1 43.6 22.6 63.3 0.45 0.01 2018 0.04 2338 0.10 2347 0.25 2353 12.3
11/5/22 61.7 49.2 0.10 0.75 2.62 0.034 131 6.8 50.6 96 68 19.2 25 73.3 46.2 22.6 63.7 0.10 0.01 1619 0.01 1619 0.02 1655 0.04 1714 12.4
11/4/22 63.1 40.9 0.00 0.65 2.52 0.049 197 9.2 40.1 86 41 0.0 15 75.2 36.7 23.1 64.1 - - - - - - - - - 12.4
11/3/22 56.4 39.3 0.00 0.65 2.52 0.075 318 13.2 32.0 85 30 0.0 23 76.2 34.1 24.0 64.5 - - - - - - - - - 12.3
11/2/22 56.0 40.1 0.03 0.65 2.52 0.045 201 10.0 41.1 95 56 22.0 34 68.7 35.2 25.9 64.8 0.65 0.01 1250 0.01 1250 0.01 1250 0.02 1318 12.2
11/1/22 54.1 40.6 0.62 0.62 2.49 0.026 121 17.3 45.3 96 62 20.5 30 62.9 37.2 22.3 65.0 0.62 0.02 1242 0.07 1244 0.16 1251 0.42 1325 12.3
10/31/22 65.0 45.5 0.00 0.01 1.87 0.053 206 9.0 44.1 95 50 5.5 9 77.1 41.6 15.0 65.3 - - - - - - - - - 12.4
10/30/22 74.4 51.9 0.00 0.01 1.87 0.094 330 6.8 42.2 71 32 0.0 6 88.8 45.4 15.1 65.6 - - - - - - - - - 12.4
10/29/22 74.7 47.0 0.00 0.01 1.87 0.087 316 6.9 33.6 66 15 0.0 6 89.4 41.4 15.2 66.0 - - - - - - - - - 12.4
10/28/22 68.1 46.6 0.00 0.01 1.87 0.067 251 6.7 34.6 68 24 0.0 7 83.4 40.8 15.3 66.3 - - - - - - - - - 12.4
10/27/22 69.2 47.1 0.00 0.01 1.87 0.092 338 8.7 31.6 63 16 0.0 7 85.8 40.3 15.4 66.7 - - - - - - - - - 12.4
10/26/22 68.2 41.9 0.00 0.01 1.87 0.090 346 8.2 36.7 90 16 8.5 11 86.2 36.0 15.6 67.0 - - - - - - - - - 12.4
10/25/22 69.4 45.2 0.00 0.01 1.87 0.089 336 6.9 43.3 90 36 5.1 6 86.4 40.5 15.8 67.3 - - - - - - - - - 12.4
10/24/22 73.6 50.4 0.00 0.01 1.87 0.102 351 11.5 26.8 43 13 0.0 5 89.0 42.9 15.9 67.6 - - - - - - - - - 12.4
10/23/22 65.3 46.3 0.00 0.01 1.87 0.104 362 12.6 29.9 67 23 0.0 7 85.4 39.2 16.2 67.8 - - - - - - - - - 12.4
10/22/22 69.1 49.8 0.00 0.01 1.87 0.090 338 10.8 44.1 93 33 1.7 8 84.6 44.1 16.5 67.8 - - - - - - - - - 12.4
10/21/22 71.7 47.6 0.00 0.01 1.87 0.097 359 6.4 44.2 92 32 0.9 5 88.2 43.2 16.7 67.9 - - - - - - - - - 12.4
10/20/22 87.8 62.5 0.00 0.01 1.87 0.115 363 6.6 33.3 44 13 0.0 2 104.4 55.6 17.0 67.9 - - - - - - - - - 12.4
10/19/22 93.5 67.0 0.00 0.01 1.87 0.116 357 8.9 33.2 39 10 0.0 3 112.4 60.4 17.2 68.1 - - - - - - - - - 12.4
10/18/22 87.2 57.9 0.00 0.01 1.87 0.101 332 7.3 47.2 74 25 0.0 7 103.9 52.6 17.4 68.3 - - - - - - - - - 12.4
10/17/22 75.9 49.6 0.01 0.01 1.87 0.096 341 7.2 51.1 96 44 10.0 14 93.2 46.0 17.6 68.5 - 0.01 0810 0.01 0810 0.01 0810 0.01 0810 12.3
10/16/22 67.4 51.2 0.00 0.00 1.86 0.063 238 6.8 51.0 93 58 11.0 14 86.0 48.0 17.8 68.7 - - - - - - - - - 12.3
10/15/22 58.8 47.2 0.00 0.00 1.86 0.041 162 6.0 50.4 97 79 18.1 15 68.2 48.2 18.0 68.9 - - - - - - - - - 12.4
10/14/22 72.4 49.9 0.00 0.00 1.86 0.107 390 5.1 48.6 96 53 6.3 9 90.2 47.0 18.2 69.1 - - - - - - - - - 12.4
10/13/22 74.6 47.4 0.00 0.00 1.86 0.106 389 5.4 50.9 96 50 11.0 11 92.1 44.0 18.4 69.3 - - - - - - - - - 12.4
10/12/22 72.6 45.7 0.00 0.00 1.86 0.106 400 5.9 50.0 96 52 16.7 11 89.8 42.5 18.7 69.5 - - - - - - - - - 12.4
10/11/22 71.6 48.5 0.00 0.00 1.86 0.112 409 5.0 46.1 94 37 6.2 7 88.3 44.1 19.0 69.7 - - - - - - - - - 12.4
10/10/22 79.2 51.7 0.00 0.00 1.86 0.117 406 5.3 49.8 89 33 0.9 8 96.8 48.2 19.3 69.8 - - - - - - - - - 12.4
10/9/22 76.1 50.0 0.00 0.00 1.86 0.115 410 5.4 49.9 92 48 5.2 8 93.7 46.4 19.6 70.0 - - - - - - - - - 12.4
10/8/22 79.2 57.6 0.00 0.00 1.86 0.122 412 5.6 50.3 81 40 0.0 6 96.7 51.7 20.0 70.1 - - - - - - - - - 12.4
10/7/22 83.6 55.8 0.00 0.00 1.86 0.127 418 5.4 49.4 74 33 0.0 5 100.9 51.4 20.3 70.2 - - - - - - - - - 12.4
10/6/22 82.2 56.4 0.00 0.00 1.86 0.131 429 6.5 48.5 73 33 0.0 5 100.0 53.1 20.7 70.4 - - - - - - - - - 12.4
10/5/22 85.3 58.7 0.00 0.00 1.86 0.134 435 5.8 47.7 65 26 0.0 6 103.0 51.5 21.0 70.6 - - - - - - - - - 12.4
10/4/22 80.9 52.9 0.00 0.00 1.86 0.129 435 6.1 51.3 90 37 8.0 10 98.4 48.1 21.3 70.8 - - - - - - - - - 12.4
10/3/22 78.8 52.9 0.00 0.00 1.86 0.127 433 6.8 53.6 95 44 13.2 11 97.8 49.4 21.6 71.0 - - - - - - - - - 12.4
10/2/22 72.2 52.4 0.00 0.00 1.86 0.118 434 8.6 52.7 96 52 12.7 11 90.6 50.6 21.9 71.2 - - - - - - - - - 12.4
10/1/22 66.7 47.3 0.00 0.00 1.86 0.090 346 7.3 51.6 96 67 15.4 12 85.5 44.5 22.2 71.4 - - - - - - - - - 12.4
9/30/22 81.0 50.1 0.00 1.86 1.86 0.138 445 7.4 49.8 94 30 4.5 6 99.3 46.8 22.6 71.6 - - - - - - - - - 12.4
9/29/22 81.3 56.0 0.00 1.86 1.86 0.137 450 7.5 52.8 85 34 0.0 6 100.4 51.8 22.9 71.9 - - - - - - - - - 12.4
9/28/22 85.8 58.4 0.00 1.86 1.86 0.139 445 14.0 45.1 73 19 0.0 6 108.0 51.7 23.2 72.1 - - - - - - - - - 12.4
9/27/22 81.7 47.3 0.00 1.86 1.86 0.136 458 6.5 50.3 96 27 9.9 11 101.1 43.3 23.5 72.4 - - - - - - - - - 12.4
9/26/22 75.8 50.4 0.00 1.86 1.86 0.132 458 6.3 53.6 96 52 15.8 11 95.7 47.5 24.0 72.7 - - - - - - - - - 12.4
9/25/22 76.6 49.9 0.00 1.86 1.86 0.128 446 6.1 53.0 96 51 14.9 10 95.8 46.9 24.4 73.0 - - - - - - - - - 12.4
9/24/22 80.7 51.7 0.00 1.86 1.86 0.145 467 6.4 51.0 95 34 5.6 6 100.3 48.8 25.0 73.2 - - - - - - - - - 12.4
9/23/22 87.9 57.9 0.00 1.86 1.86 0.153 470 7.8 47.5 73 23 0.0 6 108.3 52.5 25.5 73.6 - - - - - - - - - 12.4
9/22/22 80.1 53.2 0.00 1.86 1.86 0.144 466 9.4 48.4 85 28 0.0 8 104.2 48.8 26.2 74.1 - - - - - - - - - 12.5
9/21/22 73.2 54.6 0.00 1.86 1.86 0.105 363 9.2 51.3 86 46 0.0 10 96.1 51.4 27.2 74.5 - - - - - - - - - 12.5
9/20/22 72.1 51.8 0.00 1.86 1.86 0.119 411 10.9 49.9 96 34 10.3 17 92.6 48.5 28.7 75.0 - - - - - - - - - 12.4
9/19/22 66.7 52.0 0.02 1.86 1.86 0.065 238 9.6 54.7 96 65 16.6 33 79.3 49.7 31.8 75.4 1.86 0.01 0420 0.01 0420 0.01 0101 0.02 0101 12.4
9/18/22 60.7 53.0 1.84 1.84 1.84 0.040 144 15.3 53.8 96 79 22.6 35 70.3 52.3 20.1 75.7 1.84 0.03 2015 0.12 2018 0.20 2024 0.41 2107 12.4
9/17/22 73.7 50.2 0.00 0.00 0.00 0.136 470 11.5 47.8 90 36 2.5 7 95.5 51.1 12.2 76.0 - - - - - - - - - 12.4
9/16/22 76.5 50.4 0.00 0.00 0.00 0.141 485 7.9 50.1 91 44 3.4 7 97.6 45.3 12.2 76.3 - - - - - - - - - 12.4
9/15/22 73.1 51.3 0.00 0.00 0.00 0.097 324 8.4 47.8 79 44 0.0 7 94.4 45.9 12.2 76.6 - - - - - - - - - 12.4
9/14/22 74.2 50.7 0.00 0.00 0.00 0.117 393 10.5 48.3 86 41 1.2 7 99.4 45.8 12.3 76.7 - - - - - - - - - 12.4
9/13/22 78.7 52.3 0.00 0.00 0.00 0.146 496 7.8 50.4 93 40 9.2 7 102.6 47.3 12.5 76.7 - - - - - - - - - 12.4
9/12/22 87.8 56.6 0.00 0.00 0.00 0.162 496 9.1 45.9 87 17 1.3 2 110.3 52.8 12.6 76.7 - - - - - - - - - 12.4
9/11/22 90.2 67.8 0.00 0.00 0.00 0.137 406 8.9 50.8 67 15 0.0 2 112.5 62.7 12.7 76.7 - - - - - - - - - 12.4
9/10/22 75.8 65.0 0.00 0.00 0.00 0.060 180 11.3 55.3 85 33 0.0 2 95.9 61.9 12.8 76.5 - - - - - - - - - 12.4
9/9/22 94.5 66.6 0.00 0.00 0.00 0.169 477 7.4 44.8 64 15 0.0 0 115.3 61.3 12.9 76.3 - - - - - - - - - 12.4
9/8/22 107.2 78.5 0.00 0.00 0.00 0.185 481 13.0 40.2 40 10 0.0 0 132.8 70.7 13.0 76.0 - - - - - - - - - 12.4
9/7/22 103.6 74.3 0.00 0.00 0.00 0.174 486 8.9 43.5 35 9 0.0 0 123.6 67.7 13.0 75.8 - - - - - - - - - 12.4
9/6/22 99.8 77.8 0.00 0.00 0.00 0.178 490 7.8 44.7 33 13 0.0 0 118.7 70.6 13.1 75.5 - - - - - - - - - 12.4
9/5/22 109.1 78.9 0.00 0.00 0.00 0.183 492 7.8 35.7 26 8 0.0 0 130.0 72.3 13.1 75.3 - - - - - - - - - 12.4
9/4/22 101.5 70.9 0.00 0.00 0.00 0.180 502 8.5 41.0 47 9 0.0 1 123.4 64.6 13.1 75.2 - - - - - - - - - 12.4
9/3/22 97.6 68.9 0.00 0.00 0.00 0.178 505 7.9 45.6 48 16 0.0 2 120.0 61.9 13.2 75.1 - - - - - - - - - 12.4
9/2/22 97.0 70.0 0.00 0.00 0.00 0.178 512 8.2 46.7 49 15 0.0 2 118.0 63.0 13.2 75.0 - - - - - - - - - 12.4
9/1/22 98.5 71.3 0.00 0.00 0.00 0.181 519 6.8 43.7 40 14 0.0 2 121.5 63.3 13.2 75.1 - - - - - - - - - 12.4
8/31/22 90.8 55.4 0.00 0.00 0.00 0.174 521 7.1 45.7 74 19 0.0 5 114.1 48.4 13.2 75.2 - - - - - - - - - 12.4
8/30/22 80.2 54.3 0.00 0.00 0.00 0.162 524 6.3 51.2 85 40 1.9 8 103.5 48.5 13.3 75.4 - - - - - - - - - 12.4
8/29/22 75.5 49.8 0.00 0.00 0.00 0.153 526 7.4 51.6 94 47 7.8 8 98.6 47.9 13.4 75.5 - - - - - - - - - 12.4
8/28/22 72.7 49.3 0.00 0.00 0.00 0.128 462 8.0 51.5 95 50 9.4 10 96.4 45.9 13.5 75.7 - - - - - - - - - 12.4
8/27/22 74.8 48.4 0.00 0.00 0.00 0.161 555 7.4 51.4 94 48 14.6 9 98.6 44.4 13.6 75.8 - - - - - - - - - 12.4
8/26/22 82.7 53.8 0.00 0.00 0.00 0.176 562 7.3 51.5 88 38 4.1 7 105.3 47.5 13.8 75.8 - - - - - - - - - 12.4
8/25/22 84.3 48.5 0.00 0.00 0.00 0.181 573 7.2 49.0 93 18 9.7 8 108.4 43.8 13.9 75.9 - - - - - - - - - 12.4
8/24/22 81.3 50.0 0.00 0.00 0.00 0.178 584 6.7 53.2 93 41 10.8 8 105.4 46.8 14.1 75.9 - - - - - - - - - 12.4
8/23/22 87.3 56.9 0.00 0.00 0.00 0.186 581 6.7 55.7 86 35 1.5 6 111.2 52.7 14.3 76.0 - - - - - - - - - 12.4
8/22/22 92.4 51.6 0.00 0.00 0.00 0.197 592 17.2 52.8 90 20 8.7 8 119.4 46.8 14.4 76.0 - - - - - - - - - 12.4
8/21/22 74.8 51.3 0.00 0.00 0.00 0.172 595 7.5 51.2 92 49 6.2 6 99.2 47.0 14.6 76.1 - - - - - - - - - 12.4
8/20/22 83.1 51.0 0.00 0.00 0.00 0.191 609 7.1 49.6 88 25 2.3 6 108.4 47.2 14.8 76.0 - - - - - - - - - 12.4
8/19/22 88.0 56.3 0.00 0.00 0.00 0.198 606 7.1 48.6 86 31 1.2 4 112.6 51.8 15.0 76.0 - - - - - - - - - 12.4
8/18/22 87.3 54.0 0.00 0.00 0.00 0.194 596 7.1 49.9 81 31 0.0 4 111.5 53.0 15.2 76.0 - - - - - - - - - 12.4
8/17/22 85.5 60.0 0.00 0.00 0.00 0.147 437 10.0 48.3 65 27 0.4 3 110.5 58.8 15.4 76.0 - - - - - - - - - 12.4
8/16/22 93.8 66.5 0.00 0.00 0.00 0.202 600 6.4 48.2 57 20 0.0 3 117.5 59.5 15.6 76.0 - - - - - - - - - 12.4
8/15/22 86.7 56.5 0.00 0.00 0.00 0.200 621 5.8 48.6 63 32 0.0 4 112.2 52.6 15.9 76.0 - - - - - - - - - 12.4
8/14/22 87.3 52.9 0.00 0.00 0.00 0.202 624 6.4 47.5 74 31 0.0 5 113.4 46.2 16.2 76.0 - - - - - - - - - 12.4
8/13/22 89.6 57.1 0.00 0.00 0.00 0.207 621 9.0 48.6 79 25 0.1 5 115.8 49.8 16.8 76.0 - - - - - - - - - 12.4
8/12/22 88.8 55.2 0.00 0.00 0.00 0.174 621 9.3 50.1 75 28 0.0 7 115.2 48.4 15.7 76.1 - - - - - - - - - 12.4
8/11/22 87.0 55.9 0.00 0.00 0.00 0.203 616 8.8 51.7 82 30 1.0 7 113.7 50.2 13.1 76.1 - - - - - - - - - 12.4
8/10/22 86.9 52.9 0.00 0.00 0.00 0.201 619 12.3 50.8 86 23 5.4 8 113.0 47.8 13.1 76.1 - - - - - - - - - 12.4
8/9/22 83.8 53.7 0.00 0.00 0.00 0.198 622 8.8 51.8 87 31 3.0 8 110.5 48.9 13.2 76.1 - - - - - - - - - 12.4
8/8/22 86.5 52.6 0.00 0.00 0.00 0.200 618 7.8 51.9 86 32 4.7 8 114.0 46.8 13.2 76.1 - - - - - - - - - 12.4
8/7/22 82.7 52.2 0.00 0.00 0.00 0.199 625 8.6 53.3 94 38 10.4 9 110.4 47.8 13.3 76.0 - - - - - - - - - 12.4
8/6/22 81.1 53.7 0.00 0.00 0.00 0.193 637 7.8 54.2 92 41 5.6 7 107.1 52.7 13.4 75.9 - - - - - - - - - 12.4
8/5/22 78.9 55.1 0.00 0.00 0.00 0.189 620 8.1 54.4 94 35 5.7 8 105.1 54.4 13.4 75.7 - - - - - - - - - 12.4
8/4/22 86.1 54.7 0.00 0.00 0.00 0.190 594 8.2 54.0 90 27 4.7 7 110.7 52.8 13.5 75.6 - - - - - - - - - 12.4
8/3/22 93.6 62.6 0.00 0.00 0.00 0.211 608 7.1 53.1 66 23 0.0 5 121.3 58.3 13.5 75.5 - - - - - - - - - 12.5
8/2/22 88.6 63.8 0.00 0.00 0.00 0.181 527 7.9 51.1 68 25 0.0 5 116.4 59.4 13.6 75.5 - - - - - - - - - 12.5
8/1/22 89.1 64.5 0.00 0.00 0.00 0.174 510 8.1 47.7 61 19 0.6 5 117.4 61.8 13.6 75.5 - - - - - - - - - 12.4
7/31/22 83.0 57.2 0.00 0.00 0.00 0.136 412 10.9 54.1 90 28 3.8 8 112.6 53.8 13.6 75.6 - - - - - - - - - 12.5
7/30/22 80.8 52.9 0.00 0.00 0.00 0.159 518 12.0 54.3 95 38 8.6 8 112.4 51.0 13.7 75.6 - - - - - - - - - 12.5
7/29/22 81.7 54.3 0.00 0.00 0.00 0.166 527 6.6 54.1 91 41 4.3 8 111.0 52.0 13.7 75.6 - - - - - - - - - 12.5
7/28/22 86.6 55.8 0.00 0.00 0.00 0.196 596 7.3 51.0 85 33 1.5 7 114.8 50.4 13.8 75.6 - - - - - - - - - 12.5
7/27/22 82.3 47.1 0.00 0.00 0.00 0.200 644 7.1 50.7 94 39 7.9 8 109.6 42.5 13.8 75.6 - - - - - - - - - 12.5
7/26/22 76.5 48.1 0.00 0.00 0.00 0.193 653 7.0 51.2 96 45 12.8 8 102.7 46.2 13.9 75.6 - - - - - - - - - 12.5
7/25/22 76.3 47.1 0.00 0.00 0.00 0.193 658 7.0 50.1 96 43 12.6 8 105.8 47.3 14.0 75.6 - - - - - - - - - 12.4
7/24/22 76.3 44.4 0.00 0.00 0.00 0.195 674 7.1 48.7 95 43 13.9 8 104.0 40.6 14.1 75.6 - - - - - - - - - 12.4
7/23/22 82.3 47.6 0.00 0.00 0.00 0.213 682 6.7 46.2 93 35 11.3 6 110.8 43.2 14.3 75.5 - - - - - - - - - 12.4
7/22/22 91.4 59.8 0.00 0.00 0.00 0.226 670 7.7 43.8 74 24 5.1 5 119.2 53.2 14.4 75.3 - - - - - - - - - 12.4
7/21/22 90.3 59.6 0.00 0.00 0.00 0.226 682 7.5 45.2 63 26 6.0 5 118.8 51.7 14.5 75.2 - - - - - - - - - 12.4
7/20/22 88.6 60.0 0.00 0.00 0.00 0.224 678 7.7 47.2 73 28 0.0 5 117.2 53.1 14.6 75.0 - - - - - - - - - 12.4
7/19/22 90.5 62.8 0.00 0.00 0.00 0.227 677 7.1 47.6 61 20 0.0 5 119.5 55.0 14.7 74.8 - - - - - - - - - 12.4
7/18/22 89.2 59.4 0.00 0.00 0.00 0.219 661 7.0 47.7 67 24 0.0 5 116.1 54.3 14.9 74.7 - - - - - - - - - 12.5
7/17/22 88.6 61.9 0.00 0.00 0.00 0.217 659 6.7 52.2 71 32 0.0 5 114.7 56.2 15.0 74.5 - - - - - - - - - 12.4
7/16/22 90.8 59.0 0.00 0.00 0.00 0.223 671 6.2 51.2 66 24 0.0 6 119.9 53.3 15.0 74.4 - - - - - - - - - 12.4
7/15/22 87.5 53.3 0.00 0.00 0.00 0.216 673 6.8 52.2 88 32 4.1 8 116.1 48.0 15.1 74.3 - - - - - - - - - 12.4
7/14/22 87.8 54.2 0.00 0.00 0.00 0.219 679 7.1 53.2 87 33 5.2 8 117.0 49.2 15.2 74.2 - - - - - - - - - 12.4
7/13/22 80.6 49.1 0.00 0.00 0.00 0.211 695 8.5 52.8 95 42 7.6 8 109.4 45.6 15.4 74.0 - - - - - - - - - 12.5
7/12/22 78.5 49.4 0.00 0.00 0.00 0.200 672 10.0 52.3 95 43 9.7 8 106.8 46.7 15.5 73.9 - - - - - - - - - 12.5
7/11/22 86.7 53.4 0.00 0.00 0.00 0.229 696 6.5 51.0 90 30 2.2 6 115.4 49.2 15.7 73.7 - - - - - - - - - 12.5
7/10/22 86.0 56.5 0.00 0.00 0.00 0.224 693 8.2 52.3 80 30 0.0 7 115.6 49.4 15.8 73.6 - - - - - - - - - 12.4
7/9/22 85.3 55.0 0.00 0.00 0.00 0.222 688 8.7 53.8 85 35 2.3 8 114.9 49.7 15.9 73.4 - - - - - - - - - 12.4
7/8/22 88.7 54.7 0.00 0.00 0.00 0.229 688 9.3 50.7 89 26 2.5 7 118.7 49.2 16.1 73.3 - - - - - - - - - 12.4
7/7/22 85.0 49.6 0.00 0.00 0.00 0.218 688 10.0 51.4 95 30 8.6 8 114.6 45.2 16.2 73.2 - - - - - - - - - 12.5
7/6/22 79.4 53.1 0.00 0.00 0.00 0.199 659 10.4 53.7 92 43 5.2 8 111.1 48.9 16.4 73.1 - - - - - - - - - 12.5
7/5/22 79.0 54.8 0.00 0.00 0.00 0.199 642 11.7 55.5 91 43 6.6 8 107.8 50.8 16.6 73.1 - - - - - - - - - 12.5
7/4/22 79.3 48.5 0.00 0.00 0.00 0.153 491 9.2 51.7 88 40 2.7 8 104.3 44.0 16.7 73.0 - - - - - - - - - 12.5
7/3/22 76.3 47.5 0.00 0.00 0.00 0.202 702 11.8 47.7 90 39 6.7 8 107.9 42.7 17.0 72.9 - - - - - - - - - 12.5
7/2/22 77.7 48.8 0.00 0.00 0.00 0.210 713 10.5 48.8 94 39 8.0 8 108.3 45.1 17.3 72.8 - - - - - - - - - 12.5
7/1/22 81.0 44.7 0.00 0.00 0.00 0.214 714 7.1 49.0 95 37 11.1 8 111.8 42.8 17.6 72.6 - - - - - - - - - 12.4
6/30/22 79.0 48.5 0.00 0.01 34.31 0.208 706 7.4 49.7 95 39 9.2 7 109.4 44.5 18.0 72.3 - - - - - - - - - 12.5
6/29/22 85.0 49.8 0.00 0.01 34.31 0.231 716 7.5 48.7 93 32 3.4 6 114.3 45.2 18.4 72.2 - - - - - - - - - 12.4
6/28/22 93.8 62.8 0.00 0.01 34.31 0.242 696 8.3 42.2 64 19 0.0 4 123.8 54.8 18.8 71.9 - - - - - - - - - 12.4
6/27/22 94.3 62.7 0.00 0.01 34.31 0.246 714 7.1 43.6 54 14 0.0 5 124.8 53.4 19.3 71.6 - - - - - - - - - 12.4
6/26/22 90.5 60.1 0.00 0.01 34.31 0.240 722 7.1 42.9 70 20 0.0 5 118.7 52.0 19.8 71.4 - - - - - - - - - 12.4
6/25/22 88.9 62.1 0.00 0.01 34.31 0.237 717 8.2 42.6 69 12 0.0 5 119.1 53.2 20.4 71.1 - - - - - - - - - 12.4
6/24/22 90.4 62.2 0.00 0.01 34.31 0.237 707 7.6 44.1 69 15 0.0 4 121.0 54.4 21.1 70.8 - - - - - - - - - 12.4
6/23/22 92.8 59.1 0.00 0.01 34.31 0.235 681 7.0 46.4 63 14 0.0 4 120.0 53.8 21.7 70.6 - - - - - - - - - 12.5
6/22/22 89.8 60.4 0.00 0.01 34.31 0.181 517 7.6 43.3 68 18 0.0 5 119.4 52.4 22.6 70.4 - - - - - - - - - 12.4
6/21/22 101.7 60.7 0.00 0.01 34.31 0.248 699 8.6 38.2 61 9 0.0 3 134.4 54.1 23.4 70.2 - - - - - - - - - 12.4
6/20/22 90.2 54.8 0.00 0.01 34.31 0.237 695 9.7 41.2 61 14 0.0 5 121.8 47.2 24.2 70.1 - - - - - - - - - 12.5
6/19/22 83.0 46.0 0.00 0.01 34.31 0.221 704 11.8 39.5 76 21 0.0 6 113.9 39.4 25.2 70.1 - - - - - - - - - 12.5
6/18/22 74.4 44.0 0.00 0.01 34.31 0.204 697 12.7 39.4 89 28 7.4 8 106.4 38.3 26.3 70.0 - - - - - - - - - 12.5
6/17/22 71.1 46.0 0.00 0.01 34.31 0.167 588 12.8 42.2 86 31 1.6 7 103.9 40.5 27.8 69.8 - - - - - - - - - 12.5
6/16/22 84.6 48.2 0.00 0.01 34.31 0.226 705 13.6 40.8 71 25 0.0 6 117.2 42.8 29.6 69.5 - - - - - - - - - 12.4
6/15/22 94.0 56.9 0.00 0.01 34.31 0.238 701 8.2 42.0 58 15 0.0 5 122.9 48.8 25.6 69.3 - - - - - - - - - 12.5
6/14/22 89.7 54.9 0.00 0.01 34.31 0.240 711 13.4 34.5 60 7 0.0 5 123.2 46.8 15.5 69.1 - - - - - - - - - 12.4
6/13/22 82.4 46.6 0.00 0.01 34.31 0.223 718 11.3 40.7 90 13 7.1 9 115.2 40.4 15.6 68.8 - - - - - - - - - 12.5
6/12/22 80.7 50.5 0.00 0.01 34.31 0.153 479 9.0 55.1 84 45 2.0 7 109.1 43.4 15.8 68.4 - - - - - - - - - 12.5
6/11/22 97.0 64.2 0.00 0.01 34.31 0.248 698 10.3 47.8 71 10 0.0 4 128.0 55.9 15.9 68.0 - - - - - - - - - 12.4
6/10/22 102.0 66.3 0.00 0.01 34.31 0.255 708 11.6 45.2 55 10 0.0 4 133.8 58.4 15.8 67.6 - - - - - - - - - 12.5
6/9/22 93.5 51.9 0.00 0.01 34.31 0.220 651 11.0 48.0 81 14 0.0 7 125.4 45.3 15.8 67.4 - - - - - - - - - 12.4
6/8/22 87.1 55.3 0.00 0.01 34.31 0.208 644 10.0 47.0 82 28 0.6 7 116.0 47.7 15.8 67.2 - - - - - - - - - 12.4
6/7/22 86.2 53.5 0.00 0.01 34.31 0.223 690 8.8 45.1 67 28 0.0 8 118.7 44.3 15.8 67.1 - - - - - - - - - 12.4
6/6/22 84.3 54.0 0.00 0.01 34.31 0.223 706 9.4 49.1 95 24 6.0 13 116.7 44.7 15.9 67.0 - - - - - - - - - 12.5
6/5/22 71.9 56.1 0.01 0.01 34.31 0.096 333 6.5 58.9 96 71 15.4 24 89.3 56.7 15.9 66.8 - 0.01 0348 0.01 0348 0.01 0348 0.01 0348 12.5
6/4/22 73.6 51.3 0.00 0.00 34.30 0.135 456 7.9 49.3 94 28 6.4 9 97.0 50.3 15.9 66.5 - - - - - - - - - 12.5
6/3/22 79.9 51.3 0.00 0.00 34.30 0.185 598 9.1 51.6 90 40 3.5 8 105.6 45.3 15.9 66.2 - - - - - - - - - 12.4
6/2/22 84.6 53.9 0.00 0.00 34.30 0.210 651 9.4 45.6 76 28 0.0 5 115.1 47.8 16.0 66.0 - - - - - - - - - 12.5
6/1/22 89.4 56.3 0.00 0.00 34.30 0.230 698 9.5 38.7 50 12 0.0 5 120.6 47.3 16.0 65.8 - - - - - - - - - 12.4
5/31/22 83.8 44.9 0.00 0.00 34.30 0.227 712 12.7 34.5 78 13 0.0 7 118.3 37.0 16.0 65.6 - - - - - - - - - 12.5
5/30/22 77.2 42.8 0.00 0.00 34.30 0.208 704 10.9 41.0 86 25 4.0 8 108.7 36.6 16.0 65.5 - - - - - - - - - 12.5
5/29/22 77.7 45.8 0.00 0.00 34.30 0.209 708 10.3 39.3 94 14 8.3 9 112.1 39.5 16.1 65.4 - - - - - - - - - 12.5
5/28/22 74.7 48.5 0.00 0.00 34.30 0.143 494 10.8 47.9 95 38 6.9 9 105.5 44.5 16.2 65.2 - - - - - - - - - 12.5
5/27/22 70.7 49.5 0.00 0.00 34.30 0.144 523 8.2 48.7 93 48 5.0 10 99.9 46.2 16.3 64.8 - - - - - - - - - 12.5
5/26/22 68.1 46.4 0.00 0.00 34.30 0.154 581 7.2 48.6 95 53 3.7 9 96.2 42.5 16.5 64.4 - - - - - - - - - 12.5
5/25/22 81.5 55.1 0.00 0.00 34.30 0.210 665 6.4 47.2 80 29 0.0 5 106.9 49.7 16.6 64.0 - - - - - - - - - 12.4
5/24/22 94.7 57.8 0.00 0.00 34.30 0.240 692 11.1 37.8 59 9 0.0 5 126.1 49.4 16.6 63.7 -